sensor_id;sensor_type;location;lat;lon;timestamp;pressure;altitude;pressure_sealevel;temperature;humidity
22755;BME280;11544;42.020;23.094;2023-04-19T00:14:14;96689.84;;;12.07;100.00
22755;BME280;11544;42.020;23.094;2023-04-19T00:16:54;96678.59;;;11.88;100.00
22755;BME280;11544;42.020;23.094;2023-04-19T00:54:44;96675.94;;;11.89;100.00
22755;BME280;11544;42.020;23.094;2023-04-19T00:57:22;96670.66;;;11.72;100.00
22755;BME280;11544;42.020;23.094;2023-04-19T01:00:25;96681.78;;;11.75;100.00
22755;BME280;11544;42.020;23.094;2023-04-19T01:03:24;96685.56;;;11.70;100.00
22755;BME280;11544;42.020;23.094;2023-04-19T01:05:55;96679.34;;;11.72;100.00
22755;BME280;11544;42.020;23.094;2023-04-19T01:08:25;96683.13;;;11.84;100.00
22755;BME280;11544;42.020;23.094;2023-04-19T01:10:52;96675.63;;;11.76;100.00
22755;BME280;11544;42.020;23.094;2023-04-19T01:13:23;96675.94;;;11.53;100.00
22755;BME280;11544;42.020;23.094;2023-04-19T01:15:53;96679.78;;;11.63;100.00
22755;BME280;11544;42.020;23.094;2023-04-19T02:02:37;96676.03;;;12.05;99.34
22755;BME280;11544;42.020;23.094;2023-04-19T02:05:05;96668.09;;;11.89;100.00
22755;BME280;11544;42.020;23.094;2023-04-19T02:48:00;96676.59;;;11.56;100.00
22755;BME280;11544;42.020;23.094;2023-04-19T02:50:36;96676.84;;;11.33;100.00
22755;BME280;11544;42.020;23.094;2023-04-19T02:53:04;96676.50;;;11.21;100.00
22755;BME280;11544;42.020;23.094;2023-04-19T02:55:31;96679.69;;;11.28;100.00
22755;BME280;11544;42.020;23.094;2023-04-19T02:58:02;96678.53;;;11.15;100.00
22755;BME280;11544;42.020;23.094;2023-04-19T03:00:29;96675.66;;;11.21;100.00
22755;BME280;11544;42.020;23.094;2023-04-19T03:02:59;96670.22;;;11.44;100.00
22755;BME280;11544;42.020;23.094;2023-04-19T03:05:30;96665.84;;;11.45;100.00
22755;BME280;11544;42.020;23.094;2023-04-19T03:08:28;96672.44;;;11.52;100.00
22755;BME280;11544;42.020;23.094;2023-04-19T03:11:01;96676.72;;;11.17;100.00
22755;BME280;11544;42.020;23.094;2023-04-19T04:43:48;96685.66;;;11.49;100.00
22755;BME280;11544;42.020;23.094;2023-04-19T04:47:16;96680.38;;;11.51;100.00
22755;BME280;11544;42.020;23.094;2023-04-19T04:49:59;96681.22;;;11.32;100.00
22755;BME280;11544;42.020;23.094;2023-04-19T04:52:47;96684.66;;;11.52;100.00
22755;BME280;11544;42.020;23.094;2023-04-19T04:55:14;96690.25;;;11.80;100.00
22755;BME280;11544;42.020;23.094;2023-04-19T04:57:45;96682.00;;;11.53;100.00
22755;BME280;11544;42.020;23.094;2023-04-19T05:00:15;96683.88;;;11.50;100.00
22755;BME280;11544;42.020;23.094;2023-04-19T05:02:45;96670.25;;;11.98;100.00
22755;BME280;11544;42.020;23.094;2023-04-19T05:05:14;96685.53;;;11.89;100.00
22755;BME280;11544;42.020;23.094;2023-04-19T05:07:41;96686.25;;;12.27;100.00
22755;BME280;11544;42.020;23.094;2023-04-19T05:10:08;96679.25;;;12.45;100.00
22755;BME280;11544;42.020;23.094;2023-04-19T05:12:36;96678.16;;;12.32;99.96
22755;BME280;11544;42.020;23.094;2023-04-19T05:20:49;96687.31;;;12.05;98.24
22755;BME280;11544;42.020;23.094;2023-04-19T05:23:25;96690.50;;;11.57;99.42
22755;BME280;11544;42.020;23.094;2023-04-19T05:26:08;96690.69;;;11.71;100.00
22755;BME280;11544;42.020;23.094;2023-04-19T05:28:42;96690.81;;;11.87;100.00
22755;BME280;11544;42.020;23.094;2023-04-19T05:31:12;96687.84;;;12.29;99.89
22755;BME280;11544;42.020;23.094;2023-04-19T05:33:40;96688.09;;;12.07;100.00
22755;BME280;11544;42.020;23.094;2023-04-19T05:39:05;96688.34;;;12.54;97.98
22755;BME280;11544;42.020;23.094;2023-04-19T05:41:34;96692.00;;;12.34;97.45
22755;BME280;11544;42.020;23.094;2023-04-19T05:44:28;96685.47;;;12.07;98.28
22755;BME280;11544;42.020;23.094;2023-04-19T06:14:07;96670.66;;;12.92;92.88
22755;BME280;11544;42.020;23.094;2023-04-19T06:16:34;96674.56;;;13.01;94.12
22755;BME280;11544;42.020;23.094;2023-04-19T06:19:25;96670.13;;;13.34;91.36
22755;BME280;11544;42.020;23.094;2023-04-19T06:22:22;96665.66;;;13.68;92.21
22755;BME280;11544;42.020;23.094;2023-04-19T06:25:03;96669.56;;;13.45;87.93
22755;BME280;11544;42.020;23.094;2023-04-19T06:27:51;96673.50;;;13.68;87.96
22755;BME280;11544;42.020;23.094;2023-04-19T06:30:36;96665.66;;;14.29;86.69
22755;BME280;11544;42.020;23.094;2023-04-19T06:39:20;96667.84;;;13.76;84.44
22755;BME280;11544;42.020;23.094;2023-04-19T06:42:19;96665.09;;;14.97;82.01
22755;BME280;11544;42.020;23.094;2023-04-19T06:56:01;96656.22;;;14.40;77.55
22755;BME280;11544;42.020;23.094;2023-04-19T06:58:30;96653.25;;;14.47;79.55
22755;BME280;11544;42.020;23.094;2023-04-19T07:01:06;96656.69;;;14.03;78.79
22755;BME280;11544;42.020;23.094;2023-04-19T07:03:44;96650.75;;;15.02;75.42
22755;BME280;11544;42.020;23.094;2023-04-19T07:06:38;96657.41;;;14.94;77.36
22755;BME280;11544;42.020;23.094;2023-04-19T07:09:06;96654.41;;;14.57;79.54
22755;BME280;11544;42.020;23.094;2023-04-19T07:11:34;96662.50;;;14.52;78.23
22755;BME280;11544;42.020;23.094;2023-04-19T07:14:04;96658.53;;;14.61;79.05
22755;BME280;11544;42.020;23.094;2023-04-19T07:24:19;96653.56;;;14.56;80.28
22755;BME280;11544;42.020;23.094;2023-04-19T07:27:08;96648.22;;;14.87;80.04
22755;BME280;11544;42.020;23.094;2023-04-19T07:32:31;96652.53;;;14.88;79.57
22755;BME280;11544;42.020;23.094;2023-04-19T07:34:58;96646.44;;;14.87;78.87
22755;BME280;11544;42.020;23.094;2023-04-19T07:37:25;96643.88;;;15.00;77.11
22755;BME280;11544;42.020;23.094;2023-04-19T07:39:52;96645.69;;;14.85;77.06
22755;BME280;11544;42.020;23.094;2023-04-19T07:42:19;96649.63;;;14.78;76.95
22755;BME280;11544;42.020;23.094;2023-04-19T07:44:45;96642.13;;;15.00;76.67
22755;BME280;11544;42.020;23.094;2023-04-19T07:47:14;96644.81;;;15.13;75.63
22755;BME280;11544;42.020;23.094;2023-04-19T07:49:41;96643.78;;;15.16;76.80
22755;BME280;11544;42.020;23.094;2023-04-19T07:52:10;96648.16;;;14.88;78.19
22755;BME280;11544;42.020;23.094;2023-04-19T07:54:36;96652.41;;;15.18;78.13
22755;BME280;11544;42.020;23.094;2023-04-19T07:57:07;96641.97;;;14.75;76.90
22755;BME280;11544;42.020;23.094;2023-04-19T07:59:34;96642.56;;;15.90;74.62
22755;BME280;11544;42.020;23.094;2023-04-19T08:02:01;96641.53;;;15.93;73.88
22755;BME280;11544;42.020;23.094;2023-04-19T08:04:28;96643.19;;;15.39;73.42
22755;BME280;11544;42.020;23.094;2023-04-19T08:06:55;96637.72;;;15.42;72.66
22755;BME280;11544;42.020;23.094;2023-04-19T08:09:22;96636.84;;;15.56;73.32
22755;BME280;11544;42.020;23.094;2023-04-19T08:11:52;96632.84;;;15.78;72.97
22755;BME280;11544;42.020;23.094;2023-04-19T08:14:19;96635.06;;;16.11;70.07
22755;BME280;11544;42.020;23.094;2023-04-19T08:17:03;96634.63;;;16.04;68.59
22755;BME280;11544;42.020;23.094;2023-04-19T08:19:51;96619.03;;;17.17;65.61
22755;BME280;11544;42.020;23.094;2023-04-19T08:22:18;96619.19;;;15.58;68.96
22755;BME280;11544;42.020;23.094;2023-04-19T08:24:50;96620.13;;;15.72;70.43
22755;BME280;11544;42.020;23.094;2023-04-19T08:27:17;96617.81;;;16.71;66.80
22755;BME280;11544;42.020;23.094;2023-04-19T08:29:45;96616.75;;;16.09;67.50
22755;BME280;11544;42.020;23.094;2023-04-19T08:32:12;96610.28;;;17.16;65.76
22755;BME280;11544;42.020;23.094;2023-04-19T08:34:39;96597.63;;;17.58;61.60
22755;BME280;11544;42.020;23.094;2023-04-19T08:37:06;96604.28;;;17.51;61.88
22755;BME280;11544;42.020;23.094;2023-04-19T08:39:33;96583.84;;;18.25;59.40
22755;BME280;11544;42.020;23.094;2023-04-19T08:42:05;96585.66;;;18.36;61.24
22755;BME280;11544;42.020;23.094;2023-04-19T08:44:53;96585.44;;;18.73;57.04
22755;BME280;11544;42.020;23.094;2023-04-19T08:47:43;96583.91;;;18.01;56.27
22755;BME280;11544;42.020;23.094;2023-04-19T08:50:27;96580.53;;;18.46;57.52
22755;BME280;11544;42.020;23.094;2023-04-19T08:53:05;96577.31;;;18.07;53.89
22755;BME280;11544;42.020;23.094;2023-04-19T08:55:50;96567.25;;;18.81;56.48
22755;BME280;11544;42.020;23.094;2023-04-19T08:58:36;96559.06;;;18.95;56.74
22755;BME280;11544;42.020;23.094;2023-04-19T09:01:23;96561.19;;;18.56;55.01
22755;BME280;11544;42.020;23.094;2023-04-19T09:03:55;96562.88;;;18.24;57.01
22755;BME280;11544;42.020;23.094;2023-04-19T09:06:42;96561.69;;;19.07;53.50
22755;BME280;11544;42.020;23.094;2023-04-19T09:09:18;96560.25;;;19.46;54.76
22755;BME280;11544;42.020;23.094;2023-04-19T09:11:51;96558.56;;;18.34;54.96
22755;BME280;11544;42.020;23.094;2023-04-19T09:14:29;96553.44;;;18.89;53.75
22755;BME280;11544;42.020;23.094;2023-04-19T09:17:13;96550.53;;;19.03;48.19
22755;BME280;11544;42.020;23.094;2023-04-19T09:19:48;96549.06;;;19.86;50.90
22755;BME280;11544;42.020;23.094;2023-04-19T09:22:19;96540.66;;;19.49;48.33
22755;BME280;11544;42.020;23.094;2023-04-19T09:24:54;96548.75;;;19.79;49.78
22755;BME280;11544;42.020;23.094;2023-04-19T09:27:35;96538.25;;;19.68;45.67
22755;BME280;11544;42.020;23.094;2023-04-19T09:30:04;96531.31;;;18.90;46.04
22755;BME280;11544;42.020;23.094;2023-04-19T09:32:46;96538.38;;;19.12;46.89
22755;BME280;11544;42.020;23.094;2023-04-19T09:35:20;96534.69;;;19.79;43.28
22755;BME280;11544;42.020;23.094;2023-04-19T09:38:03;96532.81;;;20.33;43.88
22755;BME280;11544;42.020;23.094;2023-04-19T09:40:33;96523.00;;;20.75;42.01
22755;BME280;11544;42.020;23.094;2023-04-19T09:43:01;96524.63;;;20.15;41.96
22755;BME280;11544;42.020;23.094;2023-04-19T09:45:48;96523.00;;;20.23;42.77
22755;BME280;11544;42.020;23.094;2023-04-19T09:48:18;96521.88;;;20.47;42.87
22755;BME280;11544;42.020;23.094;2023-04-19T09:50:54;96523.72;;;20.87;42.30
22755;BME280;11544;42.020;23.094;2023-04-19T09:53:30;96514.81;;;20.88;41.28
22755;BME280;11544;42.020;23.094;2023-04-19T09:56:01;96505.31;;;20.55;42.96
22755;BME280;11544;42.020;23.094;2023-04-19T09:58:30;96501.97;;;20.52;41.77
22755;BME280;11544;42.020;23.094;2023-04-19T10:01:17;96495.25;;;20.69;42.40
22755;BME280;11544;42.020;23.094;2023-04-19T10:03:48;96509.13;;;20.10;42.76
22755;BME280;11544;42.020;23.094;2023-04-19T10:06:17;96504.06;;;19.97;41.76
22755;BME280;11544;42.020;23.094;2023-04-19T10:08:48;96516.50;;;19.85;44.86
22755;BME280;11544;42.020;23.094;2023-04-19T10:11:19;96521.22;;;19.50;45.73
22755;BME280;11544;42.020;23.094;2023-04-19T10:13:48;96515.41;;;19.56;46.47
22755;BME280;11544;42.020;23.094;2023-04-19T10:16:17;96513.44;;;19.37;47.37
22755;BME280;11544;42.020;23.094;2023-04-19T10:18:50;96513.34;;;18.95;47.82
22755;BME280;11544;42.020;23.094;2023-04-19T10:21:20;96509.22;;;19.45;45.79
22755;BME280;11544;42.020;23.094;2023-04-19T10:23:48;96516.88;;;19.16;46.92
22755;BME280;11544;42.020;23.094;2023-04-19T10:26:24;96508.06;;;18.83;47.45
22755;BME280;11544;42.020;23.094;2023-04-19T10:29:00;96500.75;;;18.42;48.81
22755;BME280;11544;42.020;23.094;2023-04-19T10:31:31;96504.56;;;18.04;47.69
22755;BME280;11544;42.020;23.094;2023-04-19T10:34:40;96502.44;;;18.43;47.27
22755;BME280;11544;42.020;23.094;2023-04-19T10:37:10;96506.13;;;18.18;47.48
22755;BME280;11544;42.020;23.094;2023-04-19T10:39:43;96500.38;;;18.58;47.76
22755;BME280;11544;42.020;23.094;2023-04-19T10:42:13;96500.91;;;19.50;46.15
22755;BME280;11544;42.020;23.094;2023-04-19T10:44:40;96503.69;;;19.16;43.67
22755;BME280;11544;42.020;23.094;2023-04-19T10:47:07;96480.91;;;19.04;44.85
22755;BME280;11544;42.020;23.094;2023-04-19T10:49:46;96493.59;;;19.75;46.65
22755;BME280;11544;42.020;23.094;2023-04-19T10:52:26;96488.94;;;19.67;45.57
22755;BME280;11544;42.020;23.094;2023-04-19T10:54:55;96473.63;;;18.51;46.26
22755;BME280;11544;42.020;23.094;2023-04-19T10:57:22;96483.03;;;19.10;45.69
22755;BME280;11544;42.020;23.094;2023-04-19T11:00:20;96476.09;;;19.09;47.05
22755;BME280;11544;42.020;23.094;2023-04-19T11:02:51;96473.53;;;19.19;47.96
22755;BME280;11544;42.020;23.094;2023-04-19T11:05:29;96481.75;;;19.58;47.99
22755;BME280;11544;42.020;23.094;2023-04-19T11:07:56;96469.59;;;19.66;47.90
22755;BME280;11544;42.020;23.094;2023-04-19T11:10:28;96474.66;;;18.94;48.20
22755;BME280;11544;42.020;23.094;2023-04-19T11:12:57;96476.75;;;19.55;48.11
22755;BME280;11544;42.020;23.094;2023-04-19T11:15:24;96482.72;;;19.89;47.15
22755;BME280;11544;42.020;23.094;2023-04-19T11:17:51;96483.91;;;20.27;45.92
22755;BME280;11544;42.020;23.094;2023-04-19T11:20:37;96492.34;;;20.21;45.42
22755;BME280;11544;42.020;23.094;2023-04-19T11:23:29;96495.13;;;19.98;43.47
22755;BME280;11544;42.020;23.094;2023-04-19T11:26:13;96485.44;;;19.99;43.23
22755;BME280;11544;42.020;23.094;2023-04-19T11:28:40;96496.19;;;20.07;45.21
22755;BME280;11544;42.020;23.094;2023-04-19T11:31:07;96499.13;;;19.07;46.75
22755;BME280;11544;42.020;23.094;2023-04-19T11:33:35;96510.69;;;19.38;46.60
22755;BME280;11544;42.020;23.094;2023-04-19T11:36:10;96512.84;;;18.90;47.02
22755;BME280;11544;42.020;23.094;2023-04-19T11:38:40;96517.38;;;17.73;47.48
22755;BME280;11544;42.020;23.094;2023-04-19T11:41:10;96530.28;;;17.89;48.05
22755;BME280;11544;42.020;23.094;2023-04-19T11:43:40;96528.09;;;17.24;50.55
22755;BME280;11544;42.020;23.094;2023-04-19T11:46:11;96537.88;;;16.98;51.42
22755;BME280;11544;42.020;23.094;2023-04-19T11:48:52;96551.88;;;16.36;53.18
22755;BME280;11544;42.020;23.094;2023-04-19T11:51:22;96560.78;;;16.07;54.34
22755;BME280;11544;42.020;23.094;2023-04-19T11:53:52;96559.97;;;16.07;55.32
22755;BME280;11544;42.020;23.094;2023-04-19T11:56:18;96560.78;;;15.95;54.90
22755;BME280;11544;42.020;23.094;2023-04-19T11:58:46;96556.16;;;16.37;54.75
22755;BME280;11544;42.020;23.094;2023-04-19T12:01:20;96547.84;;;16.68;54.35
22755;BME280;11544;42.020;23.094;2023-04-19T12:03:52;96544.38;;;16.68;54.70
22755;BME280;11544;42.020;23.094;2023-04-19T12:06:25;96549.44;;;16.33;57.61
22755;BME280;11544;42.020;23.094;2023-04-19T12:08:54;96545.03;;;16.33;58.70
22755;BME280;11544;42.020;23.094;2023-04-19T12:11:27;96548.81;;;16.42;60.05
22755;BME280;11544;42.020;23.094;2023-04-19T12:14:12;96536.88;;;16.62;58.81
22755;BME280;11544;42.020;23.094;2023-04-19T12:16:40;96536.00;;;17.24;56.85
22755;BME280;11544;42.020;23.094;2023-04-19T12:19:16;96546.59;;;17.35;56.85
22755;BME280;11544;42.020;23.094;2023-04-19T12:21:45;96539.63;;;17.58;54.15
22755;BME280;11544;42.020;23.094;2023-04-19T12:24:23;96539.69;;;17.69;55.26
22755;BME280;11544;42.020;23.094;2023-04-19T12:27:03;96553.09;;;17.42;55.31
22755;BME280;11544;42.020;23.094;2023-04-19T12:29:32;96553.94;;;17.19;59.53
22755;BME280;11544;42.020;23.094;2023-04-19T12:32:44;96558.53;;;16.91;62.06
22755;BME280;11544;42.020;23.094;2023-04-19T12:35:12;96556.88;;;16.77;64.88
22755;BME280;11544;42.020;23.094;2023-04-19T12:37:48;96554.69;;;16.45;67.78
22755;BME280;11544;42.020;23.094;2023-04-19T12:40:15;96551.00;;;16.61;73.38
22755;BME280;11544;42.020;23.094;2023-04-19T12:42:44;96557.53;;;16.29;76.20
22755;BME280;11544;42.020;23.094;2023-04-19T12:45:14;96556.72;;;16.16;75.12
22755;BME280;11544;42.020;23.094;2023-04-19T12:47:45;96550.50;;;16.17;77.03
22755;BME280;11544;42.020;23.094;2023-04-19T12:50:16;96566.16;;;16.32;80.18
22755;BME280;11544;42.020;23.094;2023-04-19T12:52:43;96559.34;;;16.16;75.49
22755;BME280;11544;42.020;23.094;2023-04-19T12:55:11;96554.88;;;15.91;74.14
22755;BME280;11544;42.020;23.094;2023-04-19T12:57:38;96555.44;;;16.35;72.83
22755;BME280;11544;42.020;23.094;2023-04-19T13:00:05;96541.22;;;16.50;69.41
22755;BME280;11544;42.020;23.094;2023-04-19T13:02:42;96549.56;;;16.18;69.25
22755;BME280;11544;42.020;23.094;2023-04-19T13:15:54;96524.31;;;16.28;60.80
22755;BME280;11544;42.020;23.094;2023-04-19T13:18:32;96511.22;;;16.52;59.70
22755;BME280;11544;42.020;23.094;2023-04-19T13:21:11;96511.19;;;17.15;60.27
22755;BME280;11544;42.020;23.094;2023-04-19T13:23:38;96509.59;;;17.12;55.98
22755;BME280;11544;42.020;23.094;2023-04-19T13:26:05;96512.38;;;16.61;54.82
22755;BME280;11544;42.020;23.094;2023-04-19T13:28:43;96502.72;;;17.23;54.14
22755;BME280;11544;42.020;23.094;2023-04-19T13:31:10;96508.25;;;17.07;53.68
22755;BME280;11544;42.020;23.094;2023-04-19T13:33:37;96506.22;;;17.59;54.35
22755;BME280;11544;42.020;23.094;2023-04-19T13:36:04;96502.41;;;17.74;51.41
22755;BME280;11544;42.020;23.094;2023-04-19T13:38:32;96495.22;;;17.65;50.87
22755;BME280;11544;42.020;23.094;2023-04-19T13:40:59;96495.91;;;17.91;47.97
22755;BME280;11544;42.020;23.094;2023-04-19T13:43:26;96488.66;;;17.70;47.94
22755;BME280;11544;42.020;23.094;2023-04-19T13:45:53;96494.50;;;17.63;48.79
22755;BME280;11544;42.020;23.094;2023-04-19T13:48:20;96496.53;;;17.70;49.64
22755;BME280;11544;42.020;23.094;2023-04-19T13:50:47;96488.88;;;17.78;49.93
22755;BME280;11544;42.020;23.094;2023-04-19T13:53:16;96481.38;;;17.85;50.63
22755;BME280;11544;42.020;23.094;2023-04-19T13:55:43;96480.25;;;18.12;48.05
22755;BME280;11544;42.020;23.094;2023-04-19T13:58:10;96479.38;;;17.89;48.13
22755;BME280;11544;42.020;23.094;2023-04-19T14:00:37;96468.00;;;18.56;47.28
22755;BME280;11544;42.020;23.094;2023-04-19T14:03:05;96471.25;;;18.26;47.97
22755;BME280;11544;42.020;23.094;2023-04-19T14:05:32;96465.97;;;18.03;49.74
22755;BME280;11544;42.020;23.094;2023-04-19T14:08:01;96462.84;;;18.20;50.64
22755;BME280;11544;42.020;23.094;2023-04-19T14:10:28;96459.81;;;18.81;51.19
22755;BME280;11544;42.020;23.094;2023-04-19T14:12:55;96468.22;;;18.87;51.24
22755;BME280;11544;42.020;23.094;2023-04-19T14:15:22;96458.38;;;18.77;48.66
22755;BME280;11544;42.020;23.094;2023-04-19T14:17:49;96456.25;;;17.81;49.24
22755;BME280;11544;42.020;23.094;2023-04-19T14:20:17;96452.66;;;18.05;49.64
22755;BME280;11544;42.020;23.094;2023-04-19T14:22:45;96447.84;;;18.32;49.73
22755;BME280;11544;42.020;23.094;2023-04-19T14:25:21;96459.31;;;17.40;51.15
22755;BME280;11544;42.020;23.094;2023-04-19T14:27:49;96460.50;;;17.35;53.46
22755;BME280;11544;42.020;23.094;2023-04-19T14:30:16;96460.88;;;17.07;62.24
22755;BME280;11544;42.020;23.094;2023-04-19T14:32:42;96466.19;;;17.18;64.67
22755;BME280;11544;42.020;23.094;2023-04-19T14:35:10;96462.25;;;17.24;60.85
22755;BME280;11544;42.020;23.094;2023-04-19T14:37:37;96452.66;;;17.93;56.73
22755;BME280;11544;42.020;23.094;2023-04-19T14:40:07;96459.47;;;17.49;57.45
22755;BME280;11544;42.020;23.094;2023-04-19T14:42:34;96460.16;;;17.40;55.04
22755;BME280;11544;42.020;23.094;2023-04-19T14:45:01;96464.44;;;17.30;56.40
22755;BME280;11544;42.020;23.094;2023-04-19T14:47:29;96463.59;;;17.05;54.02
22755;BME280;11544;42.020;23.094;2023-04-19T14:49:56;96454.28;;;17.37;55.31
22755;BME280;11544;42.020;23.094;2023-04-19T14:52:23;96463.72;;;17.28;54.89
22755;BME280;11544;42.020;23.094;2023-04-19T14:54:51;96462.16;;;17.25;54.43
22755;BME280;11544;42.020;23.094;2023-04-19T14:57:18;96465.56;;;17.39;55.33
22755;BME280;11544;42.020;23.094;2023-04-19T14:59:45;96466.75;;;17.34;53.57
22755;BME280;11544;42.020;23.094;2023-04-19T15:02:15;96468.38;;;17.00;52.74
22755;BME280;11544;42.020;23.094;2023-04-19T15:04:42;96468.34;;;17.24;51.05
22755;BME280;11544;42.020;23.094;2023-04-19T15:07:09;96466.34;;;17.28;50.17
22755;BME280;11544;42.020;23.094;2023-04-19T15:09:36;96463.97;;;17.36;49.98
22755;BME280;11544;42.020;23.094;2023-04-19T15:12:03;96462.97;;;17.26;49.99
22755;BME280;11544;42.020;23.094;2023-04-19T15:14:30;96463.94;;;17.25;51.82
22755;BME280;11544;42.020;23.094;2023-04-19T15:16:56;96470.97;;;17.13;50.91
22755;BME280;11544;42.020;23.094;2023-04-19T15:19:23;96468.50;;;17.23;49.68
22755;BME280;11544;42.020;23.094;2023-04-19T15:21:56;96465.22;;;17.19;49.86
22755;BME280;11544;42.020;23.094;2023-04-19T15:24:25;96463.63;;;17.41;48.70
22755;BME280;11544;42.020;23.094;2023-04-19T15:26:52;96472.75;;;17.48;47.07
22755;BME280;11544;42.020;23.094;2023-04-19T15:29:19;96474.50;;;17.36;47.34
22755;BME280;11544;42.020;23.094;2023-04-19T15:31:46;96465.56;;;17.39;47.11
22755;BME280;11544;42.020;23.094;2023-04-19T15:34:13;96465.91;;;17.10;47.69
22755;BME280;11544;42.020;23.094;2023-04-19T15:36:39;96470.50;;;16.95;48.79
22755;BME280;11544;42.020;23.094;2023-04-19T15:39:06;96479.19;;;16.84;48.27
22755;BME280;11544;42.020;23.094;2023-04-19T15:41:34;96478.25;;;16.72;49.28
22755;BME280;11544;42.020;23.094;2023-04-19T15:44:01;96470.09;;;16.88;48.45
22755;BME280;11544;42.020;23.094;2023-04-19T15:46:27;96482.03;;;16.81;48.74
22755;BME280;11544;42.020;23.094;2023-04-19T15:48:55;96480.28;;;16.93;49.37
22755;BME280;11544;42.020;23.094;2023-04-19T15:51:33;96473.06;;;16.84;49.49
22755;BME280;11544;42.020;23.094;2023-04-19T15:54:05;96469.16;;;16.89;49.45
22755;BME280;11544;42.020;23.094;2023-04-19T15:56:35;96473.69;;;16.87;49.25
22755;BME280;11544;42.020;23.094;2023-04-19T15:59:02;96474.59;;;16.99;49.13
22755;BME280;11544;42.020;23.094;2023-04-19T16:01:29;96470.16;;;17.00;49.44
22755;BME280;11544;42.020;23.094;2023-04-19T16:03:57;96466.94;;;16.96;48.92
22755;BME280;11544;42.020;23.094;2023-04-19T16:06:38;96470.59;;;16.93;49.39
22755;BME280;11544;42.020;23.094;2023-04-19T16:09:07;96470.72;;;16.92;49.16
22755;BME280;11544;42.020;23.094;2023-04-19T16:11:50;96471.78;;;16.89;49.50
22755;BME280;11544;42.020;23.094;2023-04-19T16:14:17;96478.44;;;16.69;50.34
22755;BME280;11544;42.020;23.094;2023-04-19T16:16:44;96468.75;;;16.83;50.03
22755;BME280;11544;42.020;23.094;2023-04-19T16:19:14;96479.91;;;16.86;49.21
22755;BME280;11544;42.020;23.094;2023-04-19T16:21:41;96485.22;;;16.98;49.10
22755;BME280;11544;42.020;23.094;2023-04-19T16:24:11;96486.66;;;16.78;49.01
22755;BME280;11544;42.020;23.094;2023-04-19T16:26:45;96484.84;;;16.78;49.18
22755;BME280;11544;42.020;23.094;2023-04-19T16:29:14;96487.47;;;16.78;49.82
22755;BME280;11544;42.020;23.094;2023-04-19T16:31:41;96496.22;;;16.91;49.29
22755;BME280;11544;42.020;23.094;2023-04-19T16:34:08;96493.25;;;16.96;48.76
22755;BME280;11544;42.020;23.094;2023-04-19T16:36:35;96497.59;;;16.71;49.50
22755;BME280;11544;42.020;23.094;2023-04-19T16:39:02;96493.72;;;16.77;48.87
22755;BME280;11544;42.020;23.094;2023-04-19T16:41:29;96499.06;;;16.76;48.80
22755;BME280;11544;42.020;23.094;2023-04-19T16:43:56;96500.56;;;16.67;49.97
22755;BME280;11544;42.020;23.094;2023-04-19T16:46:26;96503.75;;;16.59;49.68
22755;BME280;11544;42.020;23.094;2023-04-19T16:48:56;96512.94;;;16.54;50.24
22755;BME280;11544;42.020;23.094;2023-04-19T16:51:27;96504.50;;;16.48;50.18
22755;BME280;11544;42.020;23.094;2023-04-19T16:53:56;96518.09;;;16.29;50.96
22755;BME280;11544;42.020;23.094;2023-04-19T16:56:27;96515.47;;;16.17;51.34
22755;BME280;11544;42.020;23.094;2023-04-19T16:58:56;96521.78;;;16.14;51.24
22755;BME280;11544;42.020;23.094;2023-04-19T17:01:22;96519.69;;;16.06;51.88
22755;BME280;11544;42.020;23.094;2023-04-19T17:03:49;96524.00;;;15.95;52.13
22755;BME280;11544;42.020;23.094;2023-04-19T17:06:17;96533.88;;;16.17;51.87
22755;BME280;11544;42.020;23.094;2023-04-19T17:08:43;96530.69;;;15.99;51.95
22755;BME280;11544;42.020;23.094;2023-04-19T17:11:10;96539.44;;;15.86;52.17
22755;BME280;11544;42.020;23.094;2023-04-19T17:13:37;96544.47;;;15.77;52.89
22755;BME280;11544;42.020;23.094;2023-04-19T17:16:05;96548.72;;;15.92;52.46
22755;BME280;11544;42.020;23.094;2023-04-19T17:18:32;96560.66;;;15.83;52.64
22755;BME280;11544;42.020;23.094;2023-04-19T17:20:59;96556.22;;;15.71;53.17
22755;BME280;11544;42.020;23.094;2023-04-19T17:23:26;96559.44;;;15.62;53.92
22755;BME280;11544;42.020;23.094;2023-04-19T17:25:53;96566.03;;;15.55;54.28
22755;BME280;11544;42.020;23.094;2023-04-19T17:28:23;96562.97;;;15.61;54.68
22755;BME280;11544;42.020;23.094;2023-04-19T17:30:50;96570.06;;;15.33;54.90
22755;BME280;11544;42.020;23.094;2023-04-19T17:33:17;96575.34;;;15.46;54.71
22755;BME280;11544;42.020;23.094;2023-04-19T17:35:46;96582.00;;;15.24;54.20
22755;BME280;11544;42.020;23.094;2023-04-19T17:38:13;96576.69;;;14.97;55.19
22755;BME280;11544;42.020;23.094;2023-04-19T17:40:40;96585.22;;;15.01;55.89
22755;BME280;11544;42.020;23.094;2023-04-19T17:43:09;96581.53;;;14.76;56.53
22755;BME280;11544;42.020;23.094;2023-04-19T17:45:36;96584.19;;;15.03;55.26
22755;BME280;11544;42.020;23.094;2023-04-19T17:48:03;96593.69;;;14.77;55.82
22755;BME280;11544;42.020;23.094;2023-04-19T17:50:33;96593.03;;;14.88;55.70
22755;BME280;11544;42.020;23.094;2023-04-19T17:53:04;96599.59;;;14.95;56.08
22755;BME280;11544;42.020;23.094;2023-04-19T17:55:31;96607.28;;;14.70;56.54
22755;BME280;11544;42.020;23.094;2023-04-19T17:57:58;96613.38;;;14.70;57.58
22755;BME280;11544;42.020;23.094;2023-04-19T18:00:25;96619.72;;;14.52;58.62
22755;BME280;11544;42.020;23.094;2023-04-19T18:02:52;96620.13;;;14.60;58.79
22755;BME280;11544;42.020;23.094;2023-04-19T18:05:26;96618.03;;;14.36;60.48
22755;BME280;11544;42.020;23.094;2023-04-19T18:08:04;96629.34;;;14.37;61.48
22755;BME280;11544;42.020;23.094;2023-04-19T18:10:36;96634.94;;;14.31;61.42